Time;durP1;ratioP1;P1;durP2;ratioP2;P2;SDS_P1;SDS_P2;PMS_P1;PMS_P2;Temp;Humidity;BMP_temperature;BMP_pressure;BME280_temperature;BME280_humidity;BME280_pressure;Samples;Min_cycle;Max_cycle;Signal;HPM_P1;HPM_P2
2021/01/20 00:00:11;;;;;;;18.67;12.93;;;8.80;99.90;;;;;;5066907;28;20695;-81
2021/01/20 00:02:37;;;;;;;19.37;13.50;;;8.80;99.90;;;;;;5060355;28;20247;-81
2021/01/20 00:05:06;;;;;;;20.40;13.83;;;8.80;99.90;;;;;;5065131;28;20637;-80
2021/01/20 00:07:32;;;;;;;22.27;13.83;;;8.80;99.90;;;;;;5056007;28;20309;-81
2021/01/20 00:09:59;;;;;;;20.03;13.33;;;8.80;99.90;;;;;;5065779;28;20231;-81
2021/01/20 00:12:26;;;;;;;22.10;14.10;;;8.80;99.90;;;;;;5063624;28;20714;-81
2021/01/20 00:14:52;;;;;;;19.97;14.17;;;8.80;99.90;;;;;;5076255;28;20233;-81
2021/01/20 00:17:19;;;;;;;19.97;12.70;;;8.90;99.90;;;;;;5089343;28;20229;-82
2021/01/20 00:19:46;;;;;;;19.87;14.20;;;8.90;99.90;;;;;;5071701;28;20246;-81
2021/01/20 00:22:14;;;;;;;20.00;14.00;;;8.80;99.90;;;;;;5076229;28;20306;-81
2021/01/20 00:24:40;;;;;;;20.43;14.33;;;8.80;99.90;;;;;;5076130;28;20733;-81
2021/01/20 00:27:07;;;;;;;21.10;15.03;;;8.80;99.90;;;;;;5075506;28;20261;-81
2021/01/20 00:29:34;;;;;;;20.13;14.63;;;8.90;99.90;;;;;;5070908;28;20278;-81
2021/01/20 00:32:01;;;;;;;20.67;14.83;;;8.90;99.90;;;;;;5072387;28;20230;-81
2021/01/20 00:34:28;;;;;;;18.80;14.23;;;8.80;99.90;;;;;;5064259;28;20228;-81
2021/01/20 00:36:54;;;;;;;20.07;13.87;;;8.80;99.90;;;;;;5075822;28;20253;-81
2021/01/20 00:39:22;;;;;;;19.50;13.60;;;8.90;99.90;;;;;;5075186;28;20707;-81
2021/01/20 00:41:48;;;;;;;19.83;14.83;;;8.90;99.90;;;;;;5075993;28;20235;-81
2021/01/20 00:44:15;;;;;;;19.67;14.47;;;8.90;99.90;;;;;;5075395;28;20245;-81
2021/01/20 00:46:41;;;;;;;18.43;13.93;;;8.80;99.90;;;;;;5080816;28;20245;-81
2021/01/20 00:49:07;;;;;;;19.87;15.47;;;8.80;99.90;;;;;;5076812;28;20239;-81
2021/01/20 00:51:34;;;;;;;21.00;14.47;;;8.80;99.90;;;;;;5075253;28;20239;-81
2021/01/20 00:54:00;;;;;;;20.47;14.73;;;8.70;99.90;;;;;;5078790;28;20230;-80
2021/01/20 00:56:28;;;;;;;19.57;14.63;;;8.70;99.90;;;;;;5073053;28;20686;-81
2021/01/20 00:58:54;;;;;;;20.87;13.77;;;8.70;99.90;;;;;;5059880;28;20223;-81
2021/01/20 01:01:21;;;;;;;19.83;14.17;;;8.60;99.90;;;;;;5075083;28;20250;-81
2021/01/20 01:03:47;;;;;;;18.33;13.60;;;8.60;99.90;;;;;;5076845;28;20242;-81
2021/01/20 01:06:14;;;;;;;20.07;13.17;;;8.60;99.90;;;;;;5078743;28;20199;-81
2021/01/20 01:08:40;;;;;;;25.80;15.43;;;8.50;99.90;;;;;;5079478;28;20226;-81
2021/01/20 01:11:06;;;;;;;19.90;12.23;;;8.50;99.90;;;;;;5095480;28;20251;-82
2021/01/20 01:13:34;;;;;;;24.03;14.27;;;8.50;99.90;;;;;;5095063;28;20234;-81
2021/01/20 01:16:00;;;;;;;19.80;12.73;;;8.50;99.90;;;;;;5095210;28;20234;-81
2021/01/20 01:18:27;;;;;;;19.57;12.73;;;8.50;99.90;;;;;;5092480;28;20231;-81
2021/01/20 01:20:53;;;;;;;24.03;13.20;;;8.50;99.90;;;;;;5089816;28;20312;-81
2021/01/20 01:23:20;;;;;;;22.80;14.57;;;8.50;99.90;;;;;;5056599;28;20612;-81
2021/01/20 01:25:46;;;;;;;21.60;13.97;;;8.40;99.90;;;;;;5055199;28;20705;-81
2021/01/20 01:28:14;;;;;;;19.13;13.90;;;8.40;99.90;;;;;;5077257;28;20219;-80
2021/01/20 01:30:41;;;;;;;21.17;14.03;;;8.40;99.90;;;;;;5054745;28;20562;-80
2021/01/20 01:33:08;;;;;;;20.90;14.37;;;8.40;99.90;;;;;;5055125;28;20231;-81
2021/01/20 01:35:35;;;;;;;23.80;15.30;;;8.40;99.90;;;;;;5059471;28;20199;-81
2021/01/20 01:38:02;;;;;;;22.80;14.90;;;8.40;99.90;;;;;;5074622;28;20233;-81
2021/01/20 01:40:29;;;;;;;23.20;15.17;;;8.40;99.90;;;;;;5074477;28;20715;-81
2021/01/20 01:42:56;;;;;;;24.50;15.73;;;8.40;99.90;;;;;;5074732;28;20203;-81
2021/01/20 01:45:23;;;;;;;23.67;14.77;;;8.40;99.90;;;;;;5074655;28;20195;-81
2021/01/20 01:47:50;;;;;;;20.90;15.43;;;8.40;99.90;;;;;;5074016;28;20254;-81
2021/01/20 01:50:17;;;;;;;23.03;15.87;;;8.40;99.90;;;;;;5073981;28;20242;-81
2021/01/20 01:52:44;;;;;;;21.43;15.63;;;8.40;99.90;;;;;;5064545;28;20314;-81
2021/01/20 01:55:12;;;;;;;20.23;14.60;;;8.40;99.90;;;;;;5060479;28;20682;-81
2021/01/20 01:57:42;;;;;;;19.00;13.53;;;8.40;99.90;;;;;;5073501;28;20196;-81
2021/01/20 02:00:10;;;;;;;21.40;13.40;;;8.40;99.90;;;;;;5059497;28;20222;-81
2021/01/20 02:02:38;;;;;;;18.93;13.53;;;8.30;99.90;;;;;;5070743;28;20202;-81
2021/01/20 02:05:07;;;;;;;18.30;13.23;;;8.30;99.90;;;;;;5062529;28;20330;-81
2021/01/20 02:07:34;;;;;;;20.33;12.57;;;8.30;99.90;;;;;;5053916;28;20657;-81
2021/01/20 02:10:03;;;;;;;22.77;12.57;;;8.30;99.90;;;;;;5070337;28;20235;-81
2021/01/20 02:12:56;;;;;;;20.77;12.47;;;8.30;99.90;;;;;;5056828;28;20231;-81
2021/01/20 02:15:35;;;;;;;19.23;11.80;;;8.30;99.90;;;;;;5069131;28;20232;-81
2021/01/20 02:18:05;;;;;;;18.47;11.27;;;8.30;99.90;;;;;;5055331;28;20226;-82
2021/01/20 02:20:56;;;;;;;15.80;10.73;;;8.20;99.90;;;;;;5084062;28;20280;-81
2021/01/20 02:23:25;;;;;;;17.60;10.33;;;8.20;99.90;;;;;;5089085;28;20225;-81
2021/01/20 02:26:15;;;;;;;17.30;9.73;;;8.30;99.90;;;;;;5072916;28;20240;-81
2021/01/20 02:29:06;;;;;;;18.33;10.30;;;8.20;99.90;;;;;;5069152;28;20293;-81
2021/01/20 02:31:34;;;;;;;17.53;9.57;;;8.20;99.90;;;;;;5035749;28;20684;-81
2021/01/20 02:34:06;;;;;;;15.90;9.43;;;8.20;99.90;;;;;;5046314;28;20227;-80
2021/01/20 02:36:33;;;;;;;13.77;9.50;;;8.20;99.90;;;;;;5038944;28;20230;-81
2021/01/20 02:39:01;;;;;;;14.37;10.10;;;8.10;99.90;;;;;;5051442;28;20231;-81
2021/01/20 02:41:29;;;;;;;17.07;9.97;;;8.10;99.90;;;;;;5051412;28;20238;-81
2021/01/20 02:43:59;;;;;;;15.67;9.97;;;8.10;99.90;;;;;;5050615;28;20238;-80
2021/01/20 02:46:26;;;;;;;18.70;9.60;;;8.00;99.90;;;;;;5050558;28;20290;-80
2021/01/20 02:48:54;;;;;;;18.07;10.10;;;8.00;99.90;;;;;;5038191;28;20251;-80
2021/01/20 02:51:33;;;;;;;16.37;9.60;;;7.90;99.90;;;;;;5031252;28;20579;-81
2021/01/20 02:54:01;;;;;;;18.67;10.20;;;7.90;99.90;;;;;;5042966;28;20291;-81
2021/01/20 02:56:29;;;;;;;17.20;9.83;;;7.90;99.90;;;;;;5045578;28;20317;-81
2021/01/20 02:58:56;;;;;;;17.40;9.57;;;7.90;99.90;;;;;;5050589;28;20260;-81
2021/01/20 03:01:25;;;;;;;16.27;9.73;;;7.90;99.90;;;;;;5050654;28;20227;-81
2021/01/20 03:03:53;;;;;;;16.73;10.53;;;7.90;99.90;;;;;;5032197;28;20664;-80
2021/01/20 03:06:23;;;;;;;17.40;9.67;;;7.80;99.90;;;;;;5031547;28;20242;-81
2021/01/20 03:08:50;;;;;;;14.63;9.10;;;7.80;99.90;;;;;;5064278;28;20640;-81
2021/01/20 03:11:16;;;;;;;14.33;9.30;;;7.80;99.90;;;;;;5068636;28;20223;-81
2021/01/20 03:13:45;;;;;;;16.17;9.97;;;7.80;99.90;;;;;;5068619;28;20199;-81
2021/01/20 03:16:12;;;;;;;13.40;9.47;;;7.80;99.90;;;;;;5072953;28;20242;-80
2021/01/20 03:18:39;;;;;;;16.03;9.57;;;7.80;99.90;;;;;;5072013;28;20195;-81
2021/01/20 03:21:06;;;;;;;18.97;10.10;;;7.80;99.90;;;;;;5052868;28;20317;-81
2021/01/20 03:23:32;;;;;;;18.00;9.73;;;7.80;99.90;;;;;;5057538;28;20226;-81
2021/01/20 03:25:59;;;;;;;16.03;9.23;;;7.80;99.90;;;;;;5072862;28;20250;-81
2021/01/20 03:28:25;;;;;;;18.67;9.80;;;7.80;99.90;;;;;;5076616;28;20275;-81
2021/01/20 03:30:52;;;;;;;14.17;9.03;;;7.80;99.90;;;;;;5057041;28;20259;-81
2021/01/20 03:33:19;;;;;;;18.63;9.00;;;7.80;99.90;;;;;;5052255;28;20259;-80
2021/01/20 03:35:45;;;;;;;17.53;9.27;;;7.70;99.90;;;;;;5051810;28;20236;-80
2021/01/20 03:38:12;;;;;;;16.47;9.57;;;7.70;99.90;;;;;;5052297;28;20203;-80
2021/01/20 03:40:39;;;;;;;17.53;9.80;;;7.80;99.90;;;;;;5054797;28;20240;-81
2021/01/20 03:43:05;;;;;;;12.10;8.50;;;7.70;99.90;;;;;;5069518;28;20248;-81
2021/01/20 03:45:32;;;;;;;14.40;8.47;;;7.80;99.90;;;;;;5052209;28;20244;-81
2021/01/20 03:47:58;;;;;;;14.10;8.83;;;7.80;99.90;;;;;;5056397;28;20276;-81
2021/01/20 03:50:25;;;;;;;14.03;8.53;;;7.80;99.90;;;;;;5072068;28;20235;-80
2021/01/20 03:52:51;;;;;;;15.57;8.00;;;7.80;99.90;;;;;;5072441;28;20229;-81
2021/01/20 03:55:19;;;;;;;13.43;8.17;;;7.80;99.90;;;;;;5059411;28;20196;-81
2021/01/20 03:57:45;;;;;;;16.60;8.57;;;7.80;99.90;;;;;;5060465;28;20282;-81
2021/01/20 04:00:14;;;;;;;15.57;9.30;;;7.70;99.90;;;;;;5051989;28;20576;-80
2021/01/20 04:02:40;;;;;;;12.10;8.77;;;7.80;99.90;;;;;;5067330;28;20228;-81
2021/01/20 04:05:09;;;;;;;15.50;9.40;;;7.70;99.90;;;;;;5072209;28;20676;-81
2021/01/20 04:07:35;;;;;;;14.57;9.17;;;7.70;99.90;;;;;;5073277;28;20262;-80
2021/01/20 04:10:07;;;;;;;15.47;9.17;;;7.70;99.90;;;;;;5073970;28;20675;-81
2021/01/20 04:12:35;;;;;;;15.17;9.43;;;7.60;99.90;;;;;;5072347;28;20196;-80
2021/01/20 04:15:02;;;;;;;13.97;9.23;;;7.60;99.90;;;;;;5066957;28;20240;-81
2021/01/20 04:17:29;;;;;;;15.13;9.27;;;7.60;99.90;;;;;;5062212;28;20682;-81
2021/01/20 04:19:55;;;;;;;16.13;9.33;;;7.60;99.90;;;;;;5070395;28;20268;-81
2021/01/20 04:22:22;;;;;;;15.17;8.93;;;7.60;99.90;;;;;;5070717;28;20238;-81
2021/01/20 04:24:48;;;;;;;13.17;8.70;;;7.60;99.90;;;;;;5072303;28;20286;-80
2021/01/20 04:27:14;;;;;;;13.20;8.97;;;7.60;99.90;;;;;;5062000;28;20316;-81
2021/01/20 04:29:42;;;;;;;15.27;8.93;;;7.50;99.90;;;;;;5061088;28;20233;-81
2021/01/20 04:32:08;;;;;;;17.10;8.63;;;7.50;99.90;;;;;;5059923;28;20218;-81
2021/01/20 04:34:35;;;;;;;14.20;9.00;;;7.50;99.90;;;;;;5080452;28;20233;-81
2021/01/20 04:37:02;;;;;;;15.07;8.77;;;7.50;99.90;;;;;;5058667;28;20235;-81
2021/01/20 04:39:28;;;;;;;14.90;8.33;;;7.60;99.90;;;;;;5051746;28;20285;-81
2021/01/20 04:41:54;;;;;;;16.50;8.97;;;7.60;99.90;;;;;;5051821;28;20245;-81
2021/01/20 04:44:21;;;;;;;13.73;8.47;;;7.60;99.90;;;;;;5057759;28;20252;-80
2021/01/20 04:46:49;;;;;;;15.37;7.17;;;7.60;99.90;;;;;;5059239;28;20231;-81
2021/01/20 04:49:16;;;;;;;15.27;7.80;;;7.60;99.90;;;;;;5055698;28;20266;-81
2021/01/20 04:51:43;;;;;;;11.77;7.53;;;7.70;99.90;;;;;;5056646;28;20200;-81
2021/01/20 04:54:12;;;;;;;13.37;7.40;;;7.80;99.90;;;;;;5055463;28;20240;-81
2021/01/20 04:56:38;;;;;;;11.53;6.93;;;7.80;99.90;;;;;;5079883;28;20202;-80
2021/01/20 04:59:05;;;;;;;15.50;7.60;;;7.80;99.90;;;;;;5061520;28;20203;-80
2021/01/20 05:01:33;;;;;;;12.43;6.93;;;7.80;99.90;;;;;;5057202;28;20231;-81
2021/01/20 05:04:01;;;;;;;15.17;6.83;;;7.90;99.90;;;;;;5095763;28;20639;-81
2021/01/20 05:06:28;;;;;;;12.77;7.20;;;7.90;99.90;;;;;;5077185;28;20337;-81
2021/01/20 05:08:54;;;;;;;18.10;7.20;;;8.00;99.90;;;;;;5074415;28;20309;-81
2021/01/20 05:11:35;;;;;;;12.27;6.97;;;8.00;99.90;;;;;;5075405;28;20230;-82
2021/01/20 05:14:09;;;;;;;14.73;7.07;;;8.00;99.90;;;;;;5069913;28;20285;-81
2021/01/20 05:16:35;;;;;;;13.87;6.80;;;8.10;99.90;;;;;;5059432;28;20263;-80
2021/01/20 05:19:03;;;;;;;13.43;6.57;;;8.10;99.90;;;;;;5061046;28;20740;-81
2021/01/20 05:21:29;;;;;;;12.97;6.47;;;8.10;99.90;;;;;;5078688;28;20903;-81
2021/01/20 05:24:21;;;;;;;12.57;6.20;;;8.10;99.90;;;;;;5095354;28;20245;-81
2021/01/20 05:26:48;;;;;;;13.47;7.63;;;8.10;99.90;;;;;;5083518;28;20296;-81
2021/01/20 05:29:15;;;;;;;15.90;7.17;;;8.10;99.90;;;;;;5074789;28;20223;-81
2021/01/20 05:31:42;;;;;;;10.07;6.30;;;8.10;99.90;;;;;;5068367;28;20198;-81
2021/01/20 05:34:27;;;;;;;13.23;6.77;;;8.10;99.90;;;;;;5054779;28;20679;-81
2021/01/20 05:37:09;;;;;;;12.80;6.37;;;8.10;99.90;;;;;;5064699;28;20268;-81
2021/01/20 05:39:37;;;;;;;10.43;5.90;;;8.10;99.90;;;;;;5092984;28;20255;-81
2021/01/20 05:42:06;;;;;;;14.37;6.93;;;8.10;99.90;;;;;;5094750;28;20222;-81
2021/01/20 05:44:32;;;;;;;12.67;6.43;;;8.00;99.90;;;;;;5081427;28;20234;-81
2021/01/20 05:47:06;;;;;;;15.97;6.83;;;8.00;99.90;;;;;;5075028;28;20285;-81
2021/01/20 05:49:33;;;;;;;13.10;6.50;;;8.00;99.90;;;;;;5063200;28;20220;-81
2021/01/20 05:52:00;;;;;;;12.37;6.13;;;7.90;99.90;;;;;;5073793;28;20596;-81
2021/01/20 05:54:31;;;;;;;14.17;6.67;;;7.90;99.90;;;;;;5074664;28;20286;-81
2021/01/20 05:57:18;;;;;;;12.50;6.77;;;7.80;99.90;;;;;;5079569;28;20232;-80
2021/01/20 05:59:45;;;;;;;16.00;7.00;;;7.80;99.90;;;;;;5057849;28;20670;-81
2021/01/20 06:02:13;;;;;;;13.33;6.63;;;7.80;99.90;;;;;;5054260;28;20202;-80
2021/01/20 06:04:42;;;;;;;11.30;6.10;;;7.80;99.90;;;;;;5069952;28;20224;-79
2021/01/20 06:07:09;;;;;;;10.17;6.20;;;7.80;99.90;;;;;;5093986;28;20202;-79
2021/01/20 06:09:38;;;;;;;12.93;6.63;;;7.80;99.90;;;;;;5072754;28;20705;-79
2021/01/20 06:12:05;;;;;;;14.30;6.47;;;7.90;99.90;;;;;;5073358;28;20234;-79
2021/01/20 06:14:32;;;;;;;11.93;6.33;;;7.90;99.90;;;;;;5071294;28;20234;-79
2021/01/20 06:17:14;;;;;;;15.67;7.10;;;7.90;99.90;;;;;;5055945;28;20238;-78
2021/01/20 06:19:46;;;;;;;13.43;6.20;;;7.90;99.90;;;;;;5076364;28;20242;-78
2021/01/20 06:22:16;;;;;;;15.07;7.77;;;7.90;99.90;;;;;;5054006;28;20290;-78
2021/01/20 06:24:46;;;;;;;14.33;6.40;;;7.90;99.90;;;;;;5073133;28;20225;-76
2021/01/20 06:27:19;;;;;;;14.53;6.67;;;7.90;99.90;;;;;;5077151;28;20285;-79
2021/01/20 06:29:52;;;;;;;15.57;6.70;;;7.90;99.90;;;;;;5079569;28;20279;-79
2021/01/20 06:32:23;;;;;;;14.47;6.57;;;7.80;99.90;;;;;;5071623;28;20203;-79
2021/01/20 06:34:54;;;;;;;11.97;6.57;;;7.90;99.90;;;;;;5068007;28;20642;-78
2021/01/20 06:37:34;;;;;;;11.77;5.70;;;7.90;99.90;;;;;;5055517;28;20578;-79
2021/01/20 06:40:03;;;;;;;16.20;6.80;;;8.00;99.90;;;;;;5060009;28;20225;-79
2021/01/20 06:42:32;;;;;;;13.80;6.50;;;8.00;99.90;;;;;;5071789;28;20617;-79
2021/01/20 06:45:14;;;;;;;9.87;6.10;;;8.00;99.90;;;;;;5071932;28;20312;-78
2021/01/20 06:48:10;;;;;;;12.03;6.53;;;8.00;99.90;;;;;;5068616;28;20320;-78
2021/01/20 06:51:12;;;;;;;13.33;6.07;;;8.00;99.90;;;;;;5070207;28;20224;-79
2021/01/20 06:54:04;;;;;;;12.73;6.57;;;8.00;99.90;;;;;;5055244;28;20199;-78
2021/01/20 06:56:32;;;;;;;15.77;6.70;;;7.90;99.90;;;;;;5078098;28;20198;-78
2021/01/20 06:59:16;;;;;;;12.00;6.37;;;7.90;99.90;;;;;;5056952;28;20223;-79
2021/01/20 07:02:03;;;;;;;12.87;6.40;;;7.80;99.90;;;;;;5069012;28;20206;-78
2021/01/20 07:05:03;;;;;;;11.33;6.07;;;7.80;99.90;;;;;;5055977;28;20199;-78
2021/01/20 07:07:56;;;;;;;12.53;6.20;;;7.90;99.90;;;;;;5066568;28;20235;-78
2021/01/20 07:10:24;;;;;;;12.30;5.63;;;7.90;99.90;;;;;;5057364;28;20297;-78
2021/01/20 07:13:14;;;;;;;14.17;6.33;;;7.90;99.90;;;;;;5061947;28;20237;-78
2021/01/20 07:15:43;;;;;;;11.57;5.77;;;7.90;99.90;;;;;;5055492;28;20199;-78
2021/01/20 07:18:12;;;;;;;12.33;6.00;;;7.90;99.90;;;;;;5077410;28;20401;-78
2021/01/20 07:20:40;;;;;;;10.13;5.20;;;7.90;99.90;;;;;;5065201;28;20317;-78
2021/01/20 07:23:08;;;;;;;12.63;6.80;;;7.90;99.90;;;;;;5072780;28;20256;-78
2021/01/20 07:25:34;;;;;;;13.60;6.00;;;7.90;99.90;;;;;;5072042;28;20253;-78
2021/01/20 07:28:01;;;;;;;12.80;5.83;;;7.90;99.90;;;;;;5061054;28;20677;-78
2021/01/20 07:30:28;;;;;;;11.97;6.10;;;7.90;99.90;;;;;;5067157;28;20234;-78
2021/01/20 07:32:55;;;;;;;13.43;6.37;;;7.90;99.90;;;;;;5082960;28;20236;-78
2021/01/20 07:35:23;;;;;;;9.70;5.60;;;7.80;99.90;;;;;;5066030;28;20290;-79
2021/01/20 07:37:59;;;;;;;10.70;5.47;;;7.80;99.90;;;;;;5061103;28;20238;-78
2021/01/20 07:40:29;;;;;;;10.83;5.97;;;7.90;99.90;;;;;;5064895;28;20660;-78
2021/01/20 07:42:56;;;;;;;17.47;5.97;;;7.90;99.90;;;;;;5069665;28;20290;-78
2021/01/20 07:45:46;;;;;;;12.40;5.83;;;7.90;99.90;;;;;;5067417;28;20694;-78
2021/01/20 07:48:12;;;;;;;11.87;5.20;;;7.90;99.90;;;;;;5063101;28;20312;-78
2021/01/20 07:50:44;;;;;;;13.57;5.30;;;7.90;99.90;;;;;;5063061;28;20708;-78
2021/01/20 07:53:12;;;;;;;12.27;5.90;;;8.00;99.90;;;;;;5053992;28;20240;-78
2021/01/20 07:55:40;;;;;;;12.03;5.73;;;7.90;99.90;;;;;;5067677;28;20325;-78
2021/01/20 07:58:06;;;;;;;10.90;5.40;;;7.90;99.90;;;;;;5069778;28;20656;-78
2021/01/20 08:00:41;;;;;;;11.03;5.17;;;8.00;99.90;;;;;;5053267;28;20284;-77
2021/01/20 08:03:07;;;;;;;9.73;4.60;;;8.00;99.90;;;;;;5061772;28;20277;-79
2021/01/20 08:05:35;;;;;;;11.50;5.60;;;8.00;99.90;;;;;;5058748;28;20234;-79
2021/01/20 08:08:05;;;;;;;9.00;5.27;;;8.10;99.90;;;;;;5062710;28;20633;-78
2021/01/20 08:10:32;;;;;;;11.33;4.60;;;8.10;99.90;;;;;;5062958;28;20714;-79
2021/01/20 08:13:01;;;;;;;9.83;5.03;;;8.10;99.90;;;;;;5061839;28;20230;-78
2021/01/20 08:15:30;;;;;;;12.47;6.00;;;8.20;99.90;;;;;;5061291;28;20209;-79
2021/01/20 08:17:57;;;;;;;10.80;5.30;;;8.20;99.90;;;;;;5068048;28;20198;-79
2021/01/20 08:20:24;;;;;;;11.67;5.63;;;8.20;99.90;;;;;;5060950;28;20267;-79
2021/01/20 08:22:52;;;;;;;12.83;5.03;;;8.20;99.90;;;;;;5066901;28;20202;-79
2021/01/20 08:25:19;;;;;;;13.90;5.30;;;8.20;99.90;;;;;;5063380;28;20282;-78
2021/01/20 08:27:46;;;;;;;9.43;4.73;;;8.30;99.90;;;;;;5074350;28;20309;-78
2021/01/20 08:30:29;;;;;;;12.57;5.17;;;8.30;99.90;;;;;;5064669;28;20191;-78
2021/01/20 08:32:56;;;;;;;7.67;4.20;;;8.30;99.90;;;;;;5056387;28;20257;-79
2021/01/20 08:35:31;;;;;;;12.10;4.90;;;8.40;99.90;;;;;;5065226;28;20235;-79
2021/01/20 08:37:58;;;;;;;9.10;5.17;;;8.40;99.90;;;;;;5070290;28;20270;-79
2021/01/20 08:40:25;;;;;;;11.23;4.63;;;8.50;99.90;;;;;;5072682;28;20230;-79
2021/01/20 08:42:51;;;;;;;10.17;4.40;;;8.60;99.90;;;;;;5067077;28;20284;-79
2021/01/20 08:45:34;;;;;;;8.10;4.20;;;8.70;99.90;;;;;;5055663;28;20241;-79
2021/01/20 08:48:06;;;;;;;10.57;4.20;;;8.70;99.90;;;;;;5058992;28;20215;-79
2021/01/20 08:50:39;;;;;;;10.90;4.37;;;8.80;99.90;;;;;;5093227;28;20246;-79
2021/01/20 08:53:08;;;;;;;6.20;3.80;;;9.00;99.90;;;;;;5073526;28;20613;-79
2021/01/20 08:55:36;;;;;;;12.30;4.87;;;9.00;99.90;;;;;;5064826;28;20269;-79
2021/01/20 08:58:23;;;;;;;9.47;4.67;;;9.10;99.90;;;;;;5066625;28;20197;-78
2021/01/20 09:00:52;;;;;;;11.03;5.40;;;9.10;99.90;;;;;;5058791;28;20227;-77
2021/01/20 09:03:20;;;;;;;9.03;4.30;;;9.10;99.90;;;;;;5066785;28;20209;-78
2021/01/20 09:05:47;;;;;;;8.50;3.83;;;9.10;99.90;;;;;;5073063;28;20752;-79
2021/01/20 09:08:14;;;;;;;9.10;5.23;;;9.10;99.90;;;;;;5060437;28;20308;-78
2021/01/20 09:10:41;;;;;;;11.57;4.00;;;9.20;99.90;;;;;;5073094;28;20626;-78
2021/01/20 09:13:07;;;;;;;10.00;3.90;;;9.20;99.90;;;;;;5063552;28;20235;-79
2021/01/20 09:15:34;;;;;;;10.97;4.13;;;9.20;99.90;;;;;;5062716;28;20238;-79
2021/01/20 09:18:01;;;;;;;13.47;4.57;;;9.20;99.90;;;;;;5065254;28;20278;-79
2021/01/20 09:20:28;;;;;;;9.47;4.67;;;9.20;99.90;;;;;;5066490;28;20273;-78
2021/01/20 09:22:54;;;;;;;9.03;4.00;;;9.20;99.90;;;;;;5064450;28;20283;-78
2021/01/20 09:25:21;;;;;;;10.77;4.33;;;9.30;99.90;;;;;;5061868;28;20228;-79
2021/01/20 09:27:47;;;;;;;11.70;4.70;;;9.30;99.90;;;;;;5057424;28;20216;-79
2021/01/20 09:30:14;;;;;;;10.13;4.20;;;9.30;99.90;;;;;;5073705;28;20309;-79
2021/01/20 09:32:41;;;;;;;11.93;4.33;;;9.30;99.90;;;;;;5069989;28;20242;-79
2021/01/20 09:35:11;;;;;;;11.07;4.30;;;9.30;99.90;;;;;;5069529;28;20244;-78
2021/01/20 09:37:38;;;;;;;10.33;4.83;;;9.40;99.90;;;;;;5061538;28;20235;-79
2021/01/20 09:40:08;;;;;;;12.17;4.97;;;9.50;99.90;;;;;;5065414;28;20293;-78
2021/01/20 09:42:34;;;;;;;10.90;4.30;;;9.70;99.90;;;;;;5060165;28;20284;-79
2021/01/20 09:45:01;;;;;;;9.90;4.40;;;9.80;99.90;;;;;;5055478;28;20223;-79
2021/01/20 09:47:27;;;;;;;6.17;3.43;;;9.90;99.90;;;;;;5058831;28;20624;-79
2021/01/20 09:49:54;;;;;;;8.00;4.27;;;10.00;99.90;;;;;;5073387;28;20281;-79
2021/01/20 09:52:25;;;;;;;9.50;4.20;;;10.30;99.90;;;;;;5063499;28;20625;-79
2021/01/20 09:54:53;;;;;;;9.50;4.00;;;10.60;99.90;;;;;;5054054;28;20750;-79
2021/01/20 09:57:20;;;;;;;9.07;4.33;;;10.40;99.90;;;;;;5055932;28;20326;-79
2021/01/20 09:59:46;;;;;;;10.00;4.60;;;10.30;99.90;;;;;;5060769;28;20227;-79
2021/01/20 10:02:13;;;;;;;7.27;4.30;;;10.10;99.90;;;;;;5071982;28;20237;-79
2021/01/20 10:04:40;;;;;;;11.83;4.17;;;10.20;99.90;;;;;;5057132;28;20635;-79
2021/01/20 10:07:06;;;;;;;11.13;4.57;;;10.20;99.90;;;;;;5057090;28;20355;-79
2021/01/20 10:09:34;;;;;;;8.97;4.10;;;10.10;99.90;;;;;;5064891;28;20255;-79
2021/01/20 10:12:00;;;;;;;7.10;4.17;;;10.40;99.90;;;;;;5061519;28;20226;-79
2021/01/20 10:14:27;;;;;;;9.90;4.20;;;10.50;99.90;;;;;;5064452;28;20204;-79
2021/01/20 10:16:53;;;;;;;9.13;4.30;;;10.40;99.90;;;;;;5070445;28;20321;-79
2021/01/20 10:19:20;;;;;;;10.40;3.67;;;10.50;99.90;;;;;;5059533;28;20726;-79
2021/01/20 10:21:46;;;;;;;10.10;4.10;;;10.30;99.90;;;;;;5066071;28;20646;-79
2021/01/20 10:24:13;;;;;;;8.73;3.97;;;10.60;99.90;;;;;;5062109;28;20287;-79
2021/01/20 10:26:40;;;;;;;6.80;4.57;;;10.70;99.90;;;;;;5064971;28;20245;-79
2021/01/20 10:29:08;;;;;;;12.33;4.57;;;11.30;99.90;;;;;;5064346;28;20300;-79
2021/01/20 10:31:35;;;;;;;9.80;4.53;;;11.60;99.90;;;;;;5062571;28;20231;-79
2021/01/20 10:34:02;;;;;;;9.70;4.10;;;11.20;99.90;;;;;;5066778;28;20647;-79
2021/01/20 10:36:30;;;;;;;14.50;4.77;;;11.40;99.90;;;;;;5072143;28;20242;-79
2021/01/20 10:38:56;;;;;;;11.57;3.87;;;11.70;99.90;;;;;;5060923;28;20242;-79
2021/01/20 10:41:24;;;;;;;9.93;4.33;;;11.60;99.90;;;;;;5061821;28;20277;-79
2021/01/20 10:43:53;;;;;;;13.53;4.60;;;11.30;99.90;;;;;;5072586;28;20223;-79
2021/01/20 10:46:25;;;;;;;9.27;4.73;;;11.00;99.90;;;;;;5063957;28;20242;-79
2021/01/20 10:48:52;;;;;;;9.53;4.53;;;11.00;99.90;;;;;;5068318;28;20242;-79
2021/01/20 10:51:19;;;;;;;10.00;4.47;;;11.00;99.90;;;;;;5060639;28;20282;-80
2021/01/20 10:53:45;;;;;;;11.53;4.90;;;11.00;99.90;;;;;;5061749;28;20663;-76
2021/01/20 10:56:12;;;;;;;9.33;4.73;;;11.00;99.90;;;;;;5060574;28;20233;-79
2021/01/20 10:58:38;;;;;;;10.00;4.60;;;11.10;99.90;;;;;;5055682;28;20571;-79
2021/01/20 11:01:06;;;;;;;10.47;4.50;;;11.20;99.90;;;;;;5072250;28;20677;-79
2021/01/20 11:03:33;;;;;;;10.70;4.53;;;11.40;99.90;;;;;;5069415;28;20223;-80
2021/01/20 11:05:59;;;;;;;11.00;5.00;;;11.70;99.90;;;;;;5058493;28;20250;-80
2021/01/20 11:08:26;;;;;;;10.20;4.90;;;12.10;99.90;;;;;;5069116;28;20265;-80
2021/01/20 11:10:52;;;;;;;12.67;5.13;;;12.40;99.90;;;;;;5057498;28;20231;-80
2021/01/20 11:13:19;;;;;;;11.10;4.47;;;11.90;99.90;;;;;;5073153;28;20276;-79
2021/01/20 11:15:45;;;;;;;12.47;5.50;;;11.70;99.90;;;;;;5063875;28;20199;-80
2021/01/20 11:18:14;;;;;;;14.23;5.33;;;11.60;99.90;;;;;;5058743;28;20246;-80
2021/01/20 11:20:41;;;;;;;8.80;5.07;;;11.40;99.90;;;;;;5077118;28;20238;-80
2021/01/20 11:23:07;;;;;;;14.90;5.37;;;11.30;99.90;;;;;;5066028;28;20277;-80
2021/01/20 11:25:35;;;;;;;14.53;5.63;;;11.30;99.90;;;;;;5074477;28;20272;-80
2021/01/20 11:28:01;;;;;;;8.93;4.57;;;11.20;99.90;;;;;;5069566;28;20228;-80
2021/01/20 11:30:28;;;;;;;12.17;5.23;;;11.20;99.90;;;;;;5052616;28;20203;-80
2021/01/20 11:32:55;;;;;;;12.60;4.90;;;11.20;99.90;;;;;;5055822;28;20211;-79
2021/01/20 11:35:23;;;;;;;17.13;6.30;;;11.20;99.90;;;;;;5061640;28;20322;-79
2021/01/20 11:37:49;;;;;;;13.03;5.27;;;11.10;99.90;;;;;;5071254;28;20199;-80
2021/01/20 11:40:16;;;;;;;12.93;5.70;;;11.10;99.90;;;;;;5063578;28;20199;-79
2021/01/20 11:42:42;;;;;;;11.33;5.67;;;11.10;99.90;;;;;;5063601;28;20221;-80
2021/01/20 11:45:10;;;;;;;15.60;6.27;;;11.10;99.90;;;;;;5055860;28;20201;-80
2021/01/20 11:47:37;;;;;;;14.80;5.80;;;11.20;99.90;;;;;;5066471;28;20694;-79
2021/01/20 11:50:06;;;;;;;13.23;5.57;;;11.10;99.90;;;;;;5059000;28;20615;-77
2021/01/20 11:52:33;;;;;;;16.37;6.00;;;11.30;99.90;;;;;;5060825;28;20549;-76
2021/01/20 11:54:59;;;;;;;11.70;5.23;;;11.20;99.90;;;;;;5068970;28;20210;-77
2021/01/20 11:57:27;;;;;;;12.83;5.23;;;11.10;99.90;;;;;;5063197;28;20222;-77
2021/01/20 11:59:53;;;;;;;13.10;6.33;;;11.10;99.90;;;;;;5066886;28;20191;-76
2021/01/20 12:02:19;;;;;;;14.73;5.30;;;11.10;99.90;;;;;;5062911;28;20287;-76
2021/01/20 12:04:46;;;;;;;12.47;6.40;;;11.00;99.90;;;;;;5057766;28;20726;-76
2021/01/20 12:07:12;;;;;;;15.97;5.80;;;11.10;99.90;;;;;;5060993;28;20234;-77
2021/01/20 12:09:39;;;;;;;11.83;5.93;;;10.90;99.90;;;;;;5062067;28;20303;-76
2021/01/20 12:12:07;;;;;;;14.57;6.27;;;10.90;99.90;;;;;;5068571;28;20701;-77
2021/01/20 12:14:37;;;;;;;12.87;5.53;;;10.80;99.90;;;;;;5062177;28;20278;-77
2021/01/20 12:17:04;;;;;;;12.13;6.03;;;10.70;99.90;;;;;;5078787;28;20203;-77
2021/01/20 12:19:30;;;;;;;12.67;5.53;;;10.70;99.90;;;;;;5057846;28;20254;-77
2021/01/20 12:21:57;;;;;;;14.00;5.83;;;10.70;99.90;;;;;;5069891;28;20578;-77
2021/01/20 12:24:23;;;;;;;10.67;5.17;;;10.80;99.90;;;;;;5063315;28;20238;-75
2021/01/20 12:26:51;;;;;;;12.57;5.43;;;10.80;99.90;;;;;;5060069;28;20239;-75
2021/01/20 12:29:17;;;;;;;15.63;6.20;;;10.70;99.90;;;;;;5061902;28;20764;-76
2021/01/20 12:31:44;;;;;;;16.83;6.33;;;10.70;99.90;;;;;;5066881;28;21575;-77
2021/01/20 12:34:10;;;;;;;12.33;5.73;;;10.70;99.90;;;;;;5071664;28;20294;-76
2021/01/20 12:36:36;;;;;;;11.20;5.27;;;10.70;99.90;;;;;;5068948;28;20730;-77
2021/01/20 12:39:03;;;;;;;13.87;5.80;;;10.70;99.90;;;;;;5056586;28;20195;-76
2021/01/20 12:41:30;;;;;;;14.63;6.27;;;10.70;99.90;;;;;;5062740;28;20226;-77
2021/01/20 12:43:57;;;;;;;13.80;5.90;;;10.70;99.90;;;;;;5063409;28;20285;-76
2021/01/20 12:46:24;;;;;;;12.33;5.77;;;10.70;99.90;;;;;;5071373;28;20230;-76
2021/01/20 12:48:50;;;;;;;12.20;4.90;;;10.60;99.90;;;;;;5072386;28;20206;-76
2021/01/20 12:51:17;;;;;;;13.57;5.23;;;10.60;99.90;;;;;;5066108;28;20234;-76